createdAt,value
2022-10-03T00:07:11.163Z,21.52
2022-10-03T00:14:21.483Z,21.49
2022-10-03T00:21:41.431Z,21.52
2022-10-03T00:28:51.526Z,21.58
2022-10-03T00:36:01.093Z,21.59
2022-10-03T00:43:20.502Z,21.64
2022-10-03T00:50:23.902Z,21.64
2022-10-03T00:57:20.581Z,21.76
2022-10-03T01:04:42.566Z,21.79
2022-10-03T01:11:43.603Z,21.77
2022-10-03T01:18:58.598Z,21.71
2022-10-03T01:26:09.637Z,21.83
2022-10-03T01:33:29.438Z,21.81
2022-10-03T01:41:01.573Z,21.75
2022-10-03T01:48:05.528Z,21.64
2022-10-03T01:55:35.612Z,21.62
2022-10-03T02:02:44.661Z,21.58
2022-10-03T02:10:00.383Z,21.56
2022-10-03T02:17:07.590Z,21.48
2022-10-03T02:24:10.717Z,21.5
2022-10-03T02:31:21.712Z,21.48
2022-10-03T02:38:44.070Z,21.51
2022-10-03T02:45:44.531Z,21.47
2022-10-03T02:52:47.980Z,21.48
2022-10-03T03:00:07.561Z,21.6
2022-10-03T03:07:05.832Z,21.51
2022-10-03T03:14:17.117Z,21.51
2022-10-03T03:21:32.607Z,21.46
2022-10-03T03:28:26.702Z,21.46
2022-10-03T03:35:41.698Z,21.39
2022-10-03T03:42:39.859Z,21.45
2022-10-03T03:49:36.407Z,21.44
2022-10-03T03:56:49.805Z,21.44
2022-10-03T04:04:07.871Z,21.48
2022-10-03T04:11:25.844Z,21.51
2022-10-03T04:18:34.629Z,21.41
2022-10-03T04:25:24.597Z,21.5
2022-10-03T04:32:24.764Z,21.51
2022-10-03T04:39:28.634Z,21.53
2022-10-03T04:46:47.886Z,21.41
2022-10-03T04:54:01.623Z,21.52
2022-10-03T05:01:10.608Z,21.44
2022-10-03T05:08:18.859Z,21.39
2022-10-03T05:15:35.854Z,21.38
2022-10-03T05:22:51.595Z,21.37
2022-10-03T05:30:14.541Z,21.41
2022-10-03T05:37:31.995Z,21.45
2022-10-03T05:44:48.980Z,21.36
2022-10-03T05:52:02.832Z,21.41
2022-10-03T05:59:05.130Z,21.98
2022-10-03T06:05:57.147Z,22.39
2022-10-03T06:13:03.607Z,22.69
2022-10-03T06:20:00.650Z,22.81
2022-10-03T06:27:10.673Z,22.96
2022-10-03T06:34:01.824Z,22.93
2022-10-03T06:40:53.123Z,23.01
2022-10-03T06:48:04.042Z,22.93
2022-10-03T06:55:09.015Z,22.87
2022-10-03T07:02:16.634Z,22.68
2022-10-03T07:09:22.507Z,22.7
2022-10-03T07:16:28.024Z,22.64
2022-10-03T07:23:37.681Z,22.48
2022-10-03T07:30:40.711Z,22.41
2022-10-03T07:37:54.719Z,22.42
2022-10-03T07:45:12.766Z,22.32
2022-10-03T07:52:12.719Z,22.3
2022-10-03T07:59:17.630Z,22.3
2022-10-03T08:06:30.627Z,22.35
2022-10-03T08:13:50.137Z,22.22
2022-10-03T08:20:45.952Z,22.27
2022-10-03T08:28:02.175Z,22.25
2022-10-03T08:35:05.031Z,22.22
2022-10-03T08:41:56.233Z,22.2
2022-10-03T08:49:08.748Z,22.12
2022-10-03T08:56:13.696Z,22.16
2022-10-03T09:03:33.319Z,22.04
2022-10-03T09:10:35.803Z,22.03
2022-10-03T09:17:34.488Z,21.96
2022-10-03T09:24:43.757Z,21.94
2022-10-03T09:31:41.275Z,22.01
2022-10-03T09:38:51.838Z,22
2022-10-03T09:46:01.616Z,21.97
2022-10-03T09:53:23.694Z,21.99
2022-10-03T10:00:33.795Z,22
2022-10-03T10:07:37.700Z,22.02
2022-10-03T10:14:49.065Z,21.98
2022-10-03T10:21:53.993Z,22.03
2022-10-03T10:28:53.705Z,22.02
2022-10-03T10:36:04.239Z,22.03
2022-10-03T10:43:15.685Z,21.96
2022-10-03T10:50:18.767Z,22.06
2022-10-03T10:57:26.805Z,22.05
2022-10-03T11:04:43.966Z,21.99
2022-10-03T11:11:54.891Z,22.03
2022-10-03T11:19:14.069Z,22.17
2022-10-03T11:26:29.793Z,22.01
2022-10-03T11:33:41.351Z,21.97
2022-10-03T11:40:44.277Z,22.01
2022-10-03T11:47:54.835Z,21.99
2022-10-03T11:55:16.000Z,21.99
2022-10-03T12:02:16.307Z,22.04
2022-10-03T12:09:29.962Z,22.02
2022-10-03T12:16:50.017Z,22.02
2022-10-03T12:24:09.841Z,22
2022-10-03T12:31:22.908Z,21.94
2022-10-03T12:38:40.305Z,22.06
2022-10-03T12:45:48.250Z,22.08
2022-10-03T12:52:59.217Z,22.06
2022-10-03T13:00:04.870Z,22.1
2022-10-03T13:07:14.071Z,22.12
2022-10-03T13:14:35.124Z,22.2
2022-10-03T13:21:57.499Z,22.16
2022-10-03T13:29:12.811Z,22.33
2022-10-03T13:36:18.131Z,22.4
2022-10-03T13:43:15.734Z,22.43
2022-10-03T13:50:21.802Z,22.67
2022-10-03T13:57:33.856Z,22.73
2022-10-03T14:04:55.159Z,22.77
2022-10-03T14:12:21.743Z,22.82
2022-10-03T14:19:29.814Z,22.84
2022-10-03T14:26:48.388Z,22.89
2022-10-03T14:33:54.607Z,22.85
2022-10-03T14:41:09.891Z,22.87
2022-10-03T14:48:33.403Z,22.97
2022-10-03T14:55:40.843Z,23.09
2022-10-03T15:02:49.958Z,23.02
2022-10-03T15:09:58.977Z,23.01
2022-10-03T15:16:54.911Z,22.93
2022-10-03T15:24:01.932Z,22.88
2022-10-03T15:31:16.467Z,22.88
2022-10-03T15:38:26.197Z,22.81
2022-10-03T15:45:29.872Z,22.73
2022-10-03T15:52:29.407Z,22.75
2022-10-03T15:59:45.312Z,22.69
2022-10-03T16:06:55.041Z,22.58
2022-10-03T16:14:01.886Z,22.52
2022-10-03T16:21:22.206Z,22.49
2022-10-03T16:28:34.940Z,22.57
2022-10-03T16:35:42.196Z,22.51
2022-10-03T16:42:44.383Z,22.54
2022-10-03T16:49:37.938Z,22.5
2022-10-03T16:56:31.988Z,22.37
2022-10-03T17:03:33.842Z,22.37
2022-10-03T17:10:31.351Z,22.35
2022-10-03T17:17:33.964Z,22.33
2022-10-03T17:24:43.001Z,22.24
2022-10-03T17:32:01.028Z,22.2
2022-10-03T17:39:17.906Z,22.28
2022-10-03T17:46:24.128Z,22.24
2022-10-03T17:53:39.444Z,22.25
2022-10-03T18:00:46.289Z,22.19
2022-10-03T18:07:53.864Z,22.12
2022-10-03T18:14:59.420Z,22.16
2022-10-03T18:22:13.501Z,22.16
2022-10-03T18:29:16.517Z,22.12
2022-10-03T18:36:14.230Z,22.1
2022-10-03T18:43:10.743Z,22.1
2022-10-03T18:50:04.907Z,22.11
2022-10-03T18:57:02.306Z,22.09
2022-10-03T19:04:04.457Z,22.05
2022-10-03T19:11:10.335Z,22.05
2022-10-03T19:18:28.535Z,22.01
2022-10-03T19:25:35.023Z,22.01
2022-10-03T19:32:39.037Z,22.01
2022-10-03T19:39:26.006Z,22.02
2022-10-03T19:46:25.987Z,22
2022-10-03T19:53:19.100Z,22
2022-10-03T20:00:24.335Z,22.06
2022-10-03T20:07:26.193Z,22.05
2022-10-03T20:14:24.629Z,21.98
2022-10-03T20:21:24.312Z,21.95
2022-10-03T20:28:20.109Z,21.97
2022-10-03T20:35:34.179Z,22.03
2022-10-03T20:42:52.528Z,22.05
2022-10-03T20:49:46.458Z,21.97
2022-10-03T20:57:07.529Z,22.02
2022-10-03T21:04:09.867Z,22.01
2022-10-03T21:11:19.451Z,22
2022-10-03T21:18:26.046Z,21.98
2022-10-03T21:25:28.376Z,22.01
2022-10-03T21:32:33.956Z,21.99
2022-10-03T21:39:27.152Z,21.97
2022-10-03T21:46:31.027Z,22
2022-10-03T21:53:39.151Z,22.05
2022-10-03T22:00:42.132Z,22.04
2022-10-03T22:07:54.853Z,22
2022-10-03T22:14:42.407Z,22.02
2022-10-03T22:21:46.467Z,22.05
2022-10-03T22:29:12.387Z,22.03
2022-10-03T22:36:19.414Z,22
2022-10-03T22:43:13.430Z,22.04
2022-10-03T22:50:10.246Z,22.03
2022-10-03T22:56:54.474Z,22.05
2022-10-03T23:03:46.877Z,22.01
2022-10-03T23:10:41.639Z,22.03
2022-10-03T23:17:47.121Z,22.06
2022-10-03T23:24:51.903Z,22.05
2022-10-03T23:31:45.803Z,21.97
2022-10-03T23:38:27.451Z,21.99
2022-10-03T23:45:30.156Z,22.03
2022-10-03T23:52:19.163Z,22.1
2022-10-03T23:59:07.468Z,22.04
